sensor_id;sensor_type;location;lat;lon;timestamp;P1;durP1;ratioP1;P2;durP2;ratioP2
8861;SDS011;4799;50.996;4.754;2023-12-07T00:01:50;115.47;;;34.07;;
8861;SDS011;4799;50.996;4.754;2023-12-07T00:04:15;84.70;;;29.20;;
8861;SDS011;4799;50.996;4.754;2023-12-07T00:06:41;161.47;;;34.93;;
8861;SDS011;4799;50.996;4.754;2023-12-07T00:09:07;130.20;;;35.60;;
8861;SDS011;4799;50.996;4.754;2023-12-07T00:11:32;147.73;;;37.47;;
8861;SDS011;4799;50.996;4.754;2023-12-07T00:13:58;120.20;;;33.47;;
8861;SDS011;4799;50.996;4.754;2023-12-07T00:16:24;123.47;;;35.40;;
8861;SDS011;4799;50.996;4.754;2023-12-07T00:18:50;175.30;;;39.77;;
8861;SDS011;4799;50.996;4.754;2023-12-07T00:21:15;127.63;;;34.07;;
8861;SDS011;4799;50.996;4.754;2023-12-07T00:23:41;175.00;;;37.77;;
8861;SDS011;4799;50.996;4.754;2023-12-07T00:26:07;123.53;;;33.67;;
8861;SDS011;4799;50.996;4.754;2023-12-07T00:28:32;104.97;;;32.83;;
8861;SDS011;4799;50.996;4.754;2023-12-07T00:30:58;75.20;;;29.67;;
8861;SDS011;4799;50.996;4.754;2023-12-07T00:33:24;103.90;;;32.53;;
8861;SDS011;4799;50.996;4.754;2023-12-07T00:35:50;94.93;;;33.47;;
8861;SDS011;4799;50.996;4.754;2023-12-07T00:38:15;130.10;;;37.27;;
8861;SDS011;4799;50.996;4.754;2023-12-07T00:40:41;115.87;;;33.10;;
8861;SDS011;4799;50.996;4.754;2023-12-07T00:43:07;89.27;;;32.70;;
8861;SDS011;4799;50.996;4.754;2023-12-07T00:45:33;124.17;;;33.00;;
8861;SDS011;4799;50.996;4.754;2023-12-07T00:47:59;167.77;;;37.93;;
8861;SDS011;4799;50.996;4.754;2023-12-07T00:50:25;151.43;;;37.07;;
8861;SDS011;4799;50.996;4.754;2023-12-07T00:52:51;81.50;;;31.80;;
8861;SDS011;4799;50.996;4.754;2023-12-07T00:55:16;141.87;;;34.60;;
8861;SDS011;4799;50.996;4.754;2023-12-07T00:57:42;107.50;;;34.67;;
8861;SDS011;4799;50.996;4.754;2023-12-07T01:00:08;94.03;;;32.27;;
8861;SDS011;4799;50.996;4.754;2023-12-07T01:02:35;147.00;;;40.10;;
8861;SDS011;4799;50.996;4.754;2023-12-07T01:05:01;198.90;;;43.77;;
8861;SDS011;4799;50.996;4.754;2023-12-07T01:07:27;132.13;;;40.40;;
8861;SDS011;4799;50.996;4.754;2023-12-07T01:09:53;87.60;;;32.83;;
8861;SDS011;4799;50.996;4.754;2023-12-07T01:12:18;108.20;;;34.20;;
8861;SDS011;4799;50.996;4.754;2023-12-07T01:14:45;100.33;;;33.70;;
8861;SDS011;4799;50.996;4.754;2023-12-07T01:17:11;106.03;;;34.63;;
8861;SDS011;4799;50.996;4.754;2023-12-07T01:19:36;84.40;;;33.43;;
8861;SDS011;4799;50.996;4.754;2023-12-07T01:22:02;125.60;;;37.20;;
8861;SDS011;4799;50.996;4.754;2023-12-07T01:24:28;91.07;;;36.03;;
8861;SDS011;4799;50.996;4.754;2023-12-07T01:26:54;108.80;;;34.17;;
8861;SDS011;4799;50.996;4.754;2023-12-07T01:29:20;89.50;;;33.07;;
8861;SDS011;4799;50.996;4.754;2023-12-07T01:31:46;80.10;;;32.03;;
8861;SDS011;4799;50.996;4.754;2023-12-07T01:34:11;82.10;;;32.00;;
8861;SDS011;4799;50.996;4.754;2023-12-07T01:36:37;92.23;;;33.20;;
8861;SDS011;4799;50.996;4.754;2023-12-07T01:39:03;112.33;;;35.00;;
8861;SDS011;4799;50.996;4.754;2023-12-07T01:41:29;101.97;;;33.90;;
8861;SDS011;4799;50.996;4.754;2023-12-07T01:43:56;120.27;;;34.87;;
8861;SDS011;4799;50.996;4.754;2023-12-07T01:46:21;119.83;;;34.10;;
8861;SDS011;4799;50.996;4.754;2023-12-07T01:48:48;144.33;;;36.23;;
8861;SDS011;4799;50.996;4.754;2023-12-07T01:51:14;99.00;;;34.53;;
8861;SDS011;4799;50.996;4.754;2023-12-07T01:53:41;82.40;;;32.97;;
8861;SDS011;4799;50.996;4.754;2023-12-07T01:56:07;69.93;;;29.57;;
8861;SDS011;4799;50.996;4.754;2023-12-07T01:58:34;101.73;;;34.03;;
8861;SDS011;4799;50.996;4.754;2023-12-07T02:01:00;74.67;;;31.43;;
8861;SDS011;4799;50.996;4.754;2023-12-07T02:03:27;73.70;;;30.77;;
8861;SDS011;4799;50.996;4.754;2023-12-07T02:05:55;63.73;;;29.63;;
8861;SDS011;4799;50.996;4.754;2023-12-07T02:08:22;119.07;;;37.80;;
8861;SDS011;4799;50.996;4.754;2023-12-07T02:10:48;79.90;;;33.03;;
8861;SDS011;4799;50.996;4.754;2023-12-07T02:13:14;100.63;;;37.23;;
8861;SDS011;4799;50.996;4.754;2023-12-07T02:15:39;80.23;;;33.03;;
8861;SDS011;4799;50.996;4.754;2023-12-07T02:18:16;66.87;;;31.83;;
8861;SDS011;4799;50.996;4.754;2023-12-07T02:23:43;70.63;;;30.53;;
8861;SDS011;4799;50.996;4.754;2023-12-07T02:26:11;60.37;;;29.83;;
8861;SDS011;4799;50.996;4.754;2023-12-07T02:28:43;61.27;;;29.87;;
8861;SDS011;4799;50.996;4.754;2023-12-07T02:31:09;57.83;;;27.33;;
8861;SDS011;4799;50.996;4.754;2023-12-07T02:33:34;57.50;;;28.17;;
8861;SDS011;4799;50.996;4.754;2023-12-07T02:36:00;71.90;;;30.03;;
8861;SDS011;4799;50.996;4.754;2023-12-07T02:38:26;61.50;;;28.63;;
8861;SDS011;4799;50.996;4.754;2023-12-07T02:40:53;56.30;;;28.27;;
8861;SDS011;4799;50.996;4.754;2023-12-07T02:43:20;64.63;;;28.37;;
8861;SDS011;4799;50.996;4.754;2023-12-07T02:45:47;60.47;;;28.70;;
8861;SDS011;4799;50.996;4.754;2023-12-07T02:48:13;69.33;;;30.97;;
8861;SDS011;4799;50.996;4.754;2023-12-07T02:50:39;56.57;;;29.03;;
8861;SDS011;4799;50.996;4.754;2023-12-07T02:53:04;76.97;;;32.03;;
8861;SDS011;4799;50.996;4.754;2023-12-07T02:55:30;67.00;;;30.80;;
8861;SDS011;4799;50.996;4.754;2023-12-07T02:57:56;59.83;;;29.90;;
8861;SDS011;4799;50.996;4.754;2023-12-07T03:00:22;71.90;;;31.27;;
8861;SDS011;4799;50.996;4.754;2023-12-07T03:02:47;85.53;;;34.57;;
8861;SDS011;4799;50.996;4.754;2023-12-07T03:05:13;86.70;;;35.63;;
8861;SDS011;4799;50.996;4.754;2023-12-07T03:07:39;82.77;;;35.00;;
8861;SDS011;4799;50.996;4.754;2023-12-07T03:10:05;64.83;;;32.80;;
8861;SDS011;4799;50.996;4.754;2023-12-07T03:12:31;92.80;;;37.33;;
8861;SDS011;4799;50.996;4.754;2023-12-07T03:14:56;80.20;;;35.77;;
8861;SDS011;4799;50.996;4.754;2023-12-07T03:17:22;82.30;;;36.00;;
8861;SDS011;4799;50.996;4.754;2023-12-07T03:19:48;85.53;;;35.77;;
8861;SDS011;4799;50.996;4.754;2023-12-07T03:22:14;70.67;;;34.17;;
8861;SDS011;4799;50.996;4.754;2023-12-07T03:24:43;63.17;;;32.43;;
8861;SDS011;4799;50.996;4.754;2023-12-07T03:27:10;63.10;;;33.50;;
8861;SDS011;4799;50.996;4.754;2023-12-07T03:29:36;64.03;;;33.43;;
8861;SDS011;4799;50.996;4.754;2023-12-07T03:32:02;55.87;;;32.30;;
8861;SDS011;4799;50.996;4.754;2023-12-07T03:34:28;57.43;;;33.40;;
8861;SDS011;4799;50.996;4.754;2023-12-07T03:36:53;55.33;;;32.07;;
8861;SDS011;4799;50.996;4.754;2023-12-07T03:39:19;52.90;;;32.23;;
8861;SDS011;4799;50.996;4.754;2023-12-07T03:41:47;47.83;;;30.70;;
8861;SDS011;4799;50.996;4.754;2023-12-07T03:44:13;48.03;;;30.47;;
8861;SDS011;4799;50.996;4.754;2023-12-07T03:46:39;42.90;;;29.63;;
8861;SDS011;4799;50.996;4.754;2023-12-07T03:49:05;47.70;;;31.03;;
8861;SDS011;4799;50.996;4.754;2023-12-07T03:51:31;44.20;;;29.30;;
8861;SDS011;4799;50.996;4.754;2023-12-07T03:53:57;41.87;;;28.93;;
8861;SDS011;4799;50.996;4.754;2023-12-07T03:56:32;44.73;;;29.43;;
8861;SDS011;4799;50.996;4.754;2023-12-07T03:58:58;47.30;;;32.13;;
8861;SDS011;4799;50.996;4.754;2023-12-07T04:01:24;44.90;;;30.03;;
8861;SDS011;4799;50.996;4.754;2023-12-07T04:03:51;42.87;;;29.30;;
8861;SDS011;4799;50.996;4.754;2023-12-07T04:06:18;46.13;;;30.00;;
8861;SDS011;4799;50.996;4.754;2023-12-07T04:08:44;44.97;;;29.60;;
8861;SDS011;4799;50.996;4.754;2023-12-07T04:11:10;43.17;;;30.30;;
8861;SDS011;4799;50.996;4.754;2023-12-07T04:13:36;38.47;;;27.57;;
8861;SDS011;4799;50.996;4.754;2023-12-07T04:16:01;41.17;;;27.93;;
8861;SDS011;4799;50.996;4.754;2023-12-07T04:18:28;40.73;;;28.57;;
8861;SDS011;4799;50.996;4.754;2023-12-07T04:20:54;37.77;;;26.53;;
8861;SDS011;4799;50.996;4.754;2023-12-07T04:23:20;37.57;;;26.20;;
8861;SDS011;4799;50.996;4.754;2023-12-07T04:25:46;35.37;;;26.20;;
8861;SDS011;4799;50.996;4.754;2023-12-07T04:28:11;35.50;;;25.80;;
8861;SDS011;4799;50.996;4.754;2023-12-07T04:30:37;32.23;;;24.83;;
8861;SDS011;4799;50.996;4.754;2023-12-07T04:33:03;33.17;;;25.27;;
8861;SDS011;4799;50.996;4.754;2023-12-07T04:35:29;37.20;;;25.77;;
8861;SDS011;4799;50.996;4.754;2023-12-07T04:37:55;38.57;;;27.30;;
8861;SDS011;4799;50.996;4.754;2023-12-07T04:40:21;32.27;;;25.63;;
8861;SDS011;4799;50.996;4.754;2023-12-07T04:42:47;33.97;;;26.20;;
8861;SDS011;4799;50.996;4.754;2023-12-07T04:45:13;34.63;;;26.73;;
8861;SDS011;4799;50.996;4.754;2023-12-07T04:47:38;35.07;;;26.97;;
8861;SDS011;4799;50.996;4.754;2023-12-07T04:50:04;32.67;;;27.00;;
8861;SDS011;4799;50.996;4.754;2023-12-07T04:52:30;35.47;;;28.07;;
8861;SDS011;4799;50.996;4.754;2023-12-07T04:54:56;33.77;;;26.73;;
8861;SDS011;4799;50.996;4.754;2023-12-07T04:57:21;36.83;;;29.37;;
8861;SDS011;4799;50.996;4.754;2023-12-07T04:59:47;37.43;;;28.53;;
8861;SDS011;4799;50.996;4.754;2023-12-07T05:02:16;36.30;;;28.47;;
8861;SDS011;4799;50.996;4.754;2023-12-07T05:04:45;35.50;;;28.47;;
8861;SDS011;4799;50.996;4.754;2023-12-07T05:07:11;34.87;;;28.53;;
8861;SDS011;4799;50.996;4.754;2023-12-07T05:09:40;31.43;;;27.50;;
8861;SDS011;4799;50.996;4.754;2023-12-07T05:12:06;34.10;;;28.27;;
8861;SDS011;4799;50.996;4.754;2023-12-07T05:14:32;31.47;;;27.73;;
8861;SDS011;4799;50.996;4.754;2023-12-07T05:16:59;31.80;;;25.47;;
8861;SDS011;4799;50.996;4.754;2023-12-07T05:19:26;29.97;;;24.83;;
8861;SDS011;4799;50.996;4.754;2023-12-07T05:21:52;29.00;;;24.87;;
8861;SDS011;4799;50.996;4.754;2023-12-07T05:24:18;34.17;;;26.77;;
8861;SDS011;4799;50.996;4.754;2023-12-07T05:26:44;32.63;;;25.97;;
8861;SDS011;4799;50.996;4.754;2023-12-07T05:29:13;29.97;;;25.13;;
8861;SDS011;4799;50.996;4.754;2023-12-07T05:31:39;30.43;;;24.33;;
8861;SDS011;4799;50.996;4.754;2023-12-07T05:34:05;29.47;;;24.30;;
8861;SDS011;4799;50.996;4.754;2023-12-07T05:36:31;27.17;;;23.27;;
8861;SDS011;4799;50.996;4.754;2023-12-07T05:38:57;30.70;;;23.87;;
8861;SDS011;4799;50.996;4.754;2023-12-07T05:41:23;24.70;;;22.00;;
8861;SDS011;4799;50.996;4.754;2023-12-07T05:43:50;26.07;;;22.13;;
8861;SDS011;4799;50.996;4.754;2023-12-07T05:46:16;27.07;;;21.87;;
8861;SDS011;4799;50.996;4.754;2023-12-07T05:48:42;26.23;;;21.47;;
8861;SDS011;4799;50.996;4.754;2023-12-07T05:51:12;28.33;;;22.60;;
8861;SDS011;4799;50.996;4.754;2023-12-07T05:53:42;22.80;;;20.23;;
8861;SDS011;4799;50.996;4.754;2023-12-07T05:56:08;23.33;;;20.33;;
8861;SDS011;4799;50.996;4.754;2023-12-07T05:58:35;25.53;;;20.20;;
8861;SDS011;4799;50.996;4.754;2023-12-07T06:01:01;26.77;;;20.97;;
8861;SDS011;4799;50.996;4.754;2023-12-07T06:03:27;21.80;;;19.50;;
8861;SDS011;4799;50.996;4.754;2023-12-07T06:05:54;21.00;;;18.70;;
8861;SDS011;4799;50.996;4.754;2023-12-07T06:08:20;22.10;;;19.63;;
8861;SDS011;4799;50.996;4.754;2023-12-07T06:10:46;21.90;;;18.97;;
8861;SDS011;4799;50.996;4.754;2023-12-07T06:13:13;21.97;;;18.87;;
8861;SDS011;4799;50.996;4.754;2023-12-07T06:15:38;20.57;;;18.47;;
8861;SDS011;4799;50.996;4.754;2023-12-07T06:18:07;21.47;;;19.27;;
8861;SDS011;4799;50.996;4.754;2023-12-07T06:20:33;20.27;;;18.07;;
8861;SDS011;4799;50.996;4.754;2023-12-07T06:23:00;20.60;;;18.40;;
8861;SDS011;4799;50.996;4.754;2023-12-07T06:25:27;20.97;;;18.67;;
8861;SDS011;4799;50.996;4.754;2023-12-07T06:27:52;19.43;;;17.33;;
8861;SDS011;4799;50.996;4.754;2023-12-07T06:30:18;18.90;;;17.00;;
8861;SDS011;4799;50.996;4.754;2023-12-07T06:32:44;20.13;;;18.03;;
8861;SDS011;4799;50.996;4.754;2023-12-07T06:35:13;20.37;;;17.47;;
8861;SDS011;4799;50.996;4.754;2023-12-07T06:37:38;20.83;;;18.23;;
8861;SDS011;4799;50.996;4.754;2023-12-07T06:40:07;21.57;;;17.63;;
8861;SDS011;4799;50.996;4.754;2023-12-07T06:42:35;21.43;;;18.60;;
8861;SDS011;4799;50.996;4.754;2023-12-07T06:45:02;20.47;;;18.10;;
8861;SDS011;4799;50.996;4.754;2023-12-07T06:47:28;20.87;;;18.67;;
8861;SDS011;4799;50.996;4.754;2023-12-07T06:49:54;20.27;;;18.07;;
8861;SDS011;4799;50.996;4.754;2023-12-07T06:52:21;22.07;;;17.27;;
8861;SDS011;4799;50.996;4.754;2023-12-07T06:54:47;20.20;;;18.03;;
8861;SDS011;4799;50.996;4.754;2023-12-07T06:57:12;22.57;;;18.03;;
8861;SDS011;4799;50.996;4.754;2023-12-07T06:59:38;20.57;;;17.80;;
8861;SDS011;4799;50.996;4.754;2023-12-07T07:02:06;22.03;;;18.30;;
8861;SDS011;4799;50.996;4.754;2023-12-07T07:04:32;20.23;;;18.03;;
8861;SDS011;4799;50.996;4.754;2023-12-07T07:06:57;21.67;;;17.90;;
8861;SDS011;4799;50.996;4.754;2023-12-07T07:09:23;21.57;;;18.47;;
8861;SDS011;4799;50.996;4.754;2023-12-07T07:11:50;24.33;;;19.50;;
8861;SDS011;4799;50.996;4.754;2023-12-07T07:14:16;24.17;;;19.73;;
8861;SDS011;4799;50.996;4.754;2023-12-07T07:16:42;25.10;;;19.37;;
8861;SDS011;4799;50.996;4.754;2023-12-07T07:19:07;23.00;;;19.13;;
8861;SDS011;4799;50.996;4.754;2023-12-07T07:21:33;26.20;;;20.43;;
8861;SDS011;4799;50.996;4.754;2023-12-07T07:23:59;26.03;;;20.03;;
8861;SDS011;4799;50.996;4.754;2023-12-07T07:26:25;25.10;;;19.90;;
8861;SDS011;4799;50.996;4.754;2023-12-07T07:28:51;24.80;;;20.40;;
8861;SDS011;4799;50.996;4.754;2023-12-07T07:31:17;26.53;;;21.53;;
8861;SDS011;4799;50.996;4.754;2023-12-07T07:33:44;24.23;;;20.30;;
8861;SDS011;4799;50.996;4.754;2023-12-07T07:36:12;24.43;;;20.60;;
8861;SDS011;4799;50.996;4.754;2023-12-07T07:38:39;29.40;;;21.63;;
8861;SDS011;4799;50.996;4.754;2023-12-07T07:41:05;27.50;;;20.90;;
8861;SDS011;4799;50.996;4.754;2023-12-07T07:43:31;29.17;;;21.97;;
8861;SDS011;4799;50.996;4.754;2023-12-07T07:45:59;27.63;;;21.73;;
8861;SDS011;4799;50.996;4.754;2023-12-07T07:48:25;28.93;;;23.03;;
8861;SDS011;4799;50.996;4.754;2023-12-07T07:50:51;27.40;;;22.20;;
8861;SDS011;4799;50.996;4.754;2023-12-07T07:53:17;28.93;;;22.60;;
8861;SDS011;4799;50.996;4.754;2023-12-07T07:55:43;30.13;;;23.57;;
8861;SDS011;4799;50.996;4.754;2023-12-07T07:58:09;31.83;;;22.47;;
8861;SDS011;4799;50.996;4.754;2023-12-07T08:00:34;29.17;;;23.30;;
8861;SDS011;4799;50.996;4.754;2023-12-07T08:03:00;26.87;;;21.53;;
8861;SDS011;4799;50.996;4.754;2023-12-07T08:05:26;30.07;;;23.40;;
8861;SDS011;4799;50.996;4.754;2023-12-07T08:07:52;28.00;;;21.87;;
8861;SDS011;4799;50.996;4.754;2023-12-07T08:10:17;29.87;;;23.63;;
8861;SDS011;4799;50.996;4.754;2023-12-07T08:12:43;30.43;;;23.10;;
8861;SDS011;4799;50.996;4.754;2023-12-07T08:15:09;31.03;;;24.60;;
8861;SDS011;4799;50.996;4.754;2023-12-07T08:17:37;30.63;;;23.47;;
8861;SDS011;4799;50.996;4.754;2023-12-07T08:20:04;30.13;;;22.70;;
8861;SDS011;4799;50.996;4.754;2023-12-07T08:22:31;32.13;;;22.37;;
8861;SDS011;4799;50.996;4.754;2023-12-07T08:24:57;29.47;;;22.93;;
8861;SDS011;4799;50.996;4.754;2023-12-07T08:27:23;30.80;;;23.77;;
8861;SDS011;4799;50.996;4.754;2023-12-07T08:29:49;26.50;;;22.03;;
8861;SDS011;4799;50.996;4.754;2023-12-07T08:32:15;26.17;;;21.80;;
8861;SDS011;4799;50.996;4.754;2023-12-07T08:34:44;28.00;;;22.90;;
8861;SDS011;4799;50.996;4.754;2023-12-07T08:37:10;27.27;;;23.20;;
8861;SDS011;4799;50.996;4.754;2023-12-07T08:39:35;26.97;;;22.03;;
8861;SDS011;4799;50.996;4.754;2023-12-07T08:42:01;27.40;;;22.17;;
8861;SDS011;4799;50.996;4.754;2023-12-07T08:44:27;26.13;;;21.57;;
8861;SDS011;4799;50.996;4.754;2023-12-07T08:46:52;26.23;;;21.77;;
8861;SDS011;4799;50.996;4.754;2023-12-07T08:49:19;27.90;;;21.93;;
8861;SDS011;4799;50.996;4.754;2023-12-07T08:51:45;24.87;;;21.73;;
8861;SDS011;4799;50.996;4.754;2023-12-07T08:54:10;24.23;;;21.27;;
8861;SDS011;4799;50.996;4.754;2023-12-07T08:56:37;24.33;;;20.97;;
8861;SDS011;4799;50.996;4.754;2023-12-07T08:59:02;24.77;;;21.30;;
8861;SDS011;4799;50.996;4.754;2023-12-07T09:01:28;25.97;;;21.37;;
8861;SDS011;4799;50.996;4.754;2023-12-07T09:03:55;23.20;;;20.37;;
8861;SDS011;4799;50.996;4.754;2023-12-07T09:06:21;23.77;;;21.27;;
8861;SDS011;4799;50.996;4.754;2023-12-07T09:08:46;23.67;;;19.80;;
8861;SDS011;4799;50.996;4.754;2023-12-07T09:11:12;23.00;;;20.00;;
8861;SDS011;4799;50.996;4.754;2023-12-07T09:13:38;23.77;;;21.13;;
8861;SDS011;4799;50.996;4.754;2023-12-07T09:16:04;26.67;;;20.93;;
8861;SDS011;4799;50.996;4.754;2023-12-07T09:18:30;25.37;;;20.53;;
8861;SDS011;4799;50.996;4.754;2023-12-07T09:20:55;22.60;;;19.77;;
8861;SDS011;4799;50.996;4.754;2023-12-07T09:23:21;23.47;;;20.50;;
8861;SDS011;4799;50.996;4.754;2023-12-07T09:25:47;23.80;;;20.17;;
8861;SDS011;4799;50.996;4.754;2023-12-07T09:28:12;24.23;;;19.73;;
8861;SDS011;4799;50.996;4.754;2023-12-07T09:30:38;24.57;;;19.90;;
8861;SDS011;4799;50.996;4.754;2023-12-07T09:33:12;20.63;;;17.80;;
8861;SDS011;4799;50.996;4.754;2023-12-07T09:35:38;21.90;;;19.50;;
8861;SDS011;4799;50.996;4.754;2023-12-07T09:38:04;22.43;;;18.47;;
8861;SDS011;4799;50.996;4.754;2023-12-07T09:40:32;21.67;;;19.42;;
8861;SDS011;4799;50.996;4.754;2023-12-07T09:42:57;20.80;;;18.60;;
8861;SDS011;4799;50.996;4.754;2023-12-07T09:45:23;19.10;;;17.03;;
8861;SDS011;4799;50.996;4.754;2023-12-07T09:47:50;22.50;;;17.17;;
8861;SDS011;4799;50.996;4.754;2023-12-07T09:50:22;19.53;;;17.40;;
8861;SDS011;4799;50.996;4.754;2023-12-07T09:52:53;17.70;;;15.83;;
8861;SDS011;4799;50.996;4.754;2023-12-07T09:55:21;18.20;;;16.40;;
8861;SDS011;4799;50.996;4.754;2023-12-07T09:57:51;19.63;;;16.60;;
8861;SDS011;4799;50.996;4.754;2023-12-07T10:00:19;19.93;;;16.73;;
8861;SDS011;4799;50.996;4.754;2023-12-07T10:02:46;18.70;;;16.70;;
8861;SDS011;4799;50.996;4.754;2023-12-07T10:05:14;17.90;;;16.03;;
8861;SDS011;4799;50.996;4.754;2023-12-07T10:07:44;18.63;;;16.27;;
8861;SDS011;4799;50.996;4.754;2023-12-07T10:10:14;16.37;;;14.63;;
8861;SDS011;4799;50.996;4.754;2023-12-07T10:12:47;18.30;;;16.20;;
8861;SDS011;4799;50.996;4.754;2023-12-07T10:15:17;18.07;;;16.17;;
8861;SDS011;4799;50.996;4.754;2023-12-07T10:17:46;18.07;;;16.17;;
8861;SDS011;4799;50.996;4.754;2023-12-07T10:20:31;16.60;;;14.77;;
8861;SDS011;4799;50.996;4.754;2023-12-07T10:23:04;17.10;;;15.40;;
8861;SDS011;4799;50.996;4.754;2023-12-07T10:25:37;17.13;;;15.40;;
8861;SDS011;4799;50.996;4.754;2023-12-07T10:28:04;17.80;;;15.30;;
8861;SDS011;4799;50.996;4.754;2023-12-07T10:30:33;17.30;;;15.57;;
8861;SDS011;4799;50.996;4.754;2023-12-07T10:32:59;18.30;;;14.97;;
8861;SDS011;4799;50.996;4.754;2023-12-07T10:35:25;16.27;;;14.57;;
8861;SDS011;4799;50.996;4.754;2023-12-07T10:37:50;19.63;;;16.10;;
8861;SDS011;4799;50.996;4.754;2023-12-07T10:40:16;16.83;;;15.13;;
8861;SDS011;4799;50.996;4.754;2023-12-07T10:42:47;16.77;;;15.17;;
8861;SDS011;4799;50.996;4.754;2023-12-07T10:45:14;16.33;;;14.63;;
8861;SDS011;4799;50.996;4.754;2023-12-07T10:47:41;16.57;;;14.87;;
8861;SDS011;4799;50.996;4.754;2023-12-07T10:50:09;16.13;;;14.63;;
8861;SDS011;4799;50.996;4.754;2023-12-07T10:53:01;17.60;;;15.60;;
8861;SDS011;4799;50.996;4.754;2023-12-07T10:55:29;15.80;;;14.13;;
8861;SDS011;4799;50.996;4.754;2023-12-07T10:58:01;15.50;;;13.93;;
8861;SDS011;4799;50.996;4.754;2023-12-07T11:00:28;16.20;;;14.60;;
8861;SDS011;4799;50.996;4.754;2023-12-07T11:02:54;17.03;;;14.80;;
8861;SDS011;4799;50.996;4.754;2023-12-07T11:05:21;15.43;;;13.93;;
8861;SDS011;4799;50.996;4.754;2023-12-07T11:13:20;15.33;;;12.77;;
8861;SDS011;4799;50.996;4.754;2023-12-07T11:15:52;14.50;;;13.00;;
8861;SDS011;4799;50.996;4.754;2023-12-07T11:18:18;14.47;;;12.63;;
8861;SDS011;4799;50.996;4.754;2023-12-07T11:20:44;14.53;;;13.13;;
8861;SDS011;4799;50.996;4.754;2023-12-07T11:23:15;14.77;;;12.40;;
8861;SDS011;4799;50.996;4.754;2023-12-07T11:25:45;14.13;;;12.63;;
8861;SDS011;4799;50.996;4.754;2023-12-07T11:28:11;13.33;;;12.03;;
8861;SDS011;4799;50.996;4.754;2023-12-07T11:30:38;12.90;;;11.60;;
8861;SDS011;4799;50.996;4.754;2023-12-07T11:33:07;13.40;;;12.03;;
8861;SDS011;4799;50.996;4.754;2023-12-07T11:36:02;12.00;;;10.80;;
8861;SDS011;4799;50.996;4.754;2023-12-07T11:38:26;12.53;;;11.33;;
8861;SDS011;4799;50.996;4.754;2023-12-07T11:40:52;12.53;;;11.17;;
8861;SDS011;4799;50.996;4.754;2023-12-07T11:44:03;12.67;;;11.40;;
8861;SDS011;4799;50.996;4.754;2023-12-07T11:46:11;12.57;;;11.30;;
8861;SDS011;4799;50.996;4.754;2023-12-07T11:48:38;12.97;;;10.93;;
8861;SDS011;4799;50.996;4.754;2023-12-07T11:51:04;12.13;;;10.87;;
8861;SDS011;4799;50.996;4.754;2023-12-07T11:53:35;11.63;;;10.47;;
8861;SDS011;4799;50.996;4.754;2023-12-07T11:56:05;12.67;;;10.43;;
8861;SDS011;4799;50.996;4.754;2023-12-07T11:58:35;12.97;;;10.63;;
8861;SDS011;4799;50.996;4.754;2023-12-07T12:01:05;13.73;;;11.27;;
8861;SDS011;4799;50.996;4.754;2023-12-07T12:03:32;12.40;;;11.20;;
8861;SDS011;4799;50.996;4.754;2023-12-07T12:05:59;10.83;;;9.80;;
8861;SDS011;4799;50.996;4.754;2023-12-07T12:08:24;12.17;;;10.97;;
8861;SDS011;4799;50.996;4.754;2023-12-07T12:10:51;12.57;;;10.80;;
8861;SDS011;4799;50.996;4.754;2023-12-07T12:13:18;12.93;;;10.93;;
8861;SDS011;4799;50.996;4.754;2023-12-07T12:15:44;12.23;;;10.90;;
8861;SDS011;4799;50.996;4.754;2023-12-07T12:18:13;11.47;;;10.10;;
8861;SDS011;4799;50.996;4.754;2023-12-07T12:20:41;11.47;;;10.37;;
8861;SDS011;4799;50.996;4.754;2023-12-07T12:23:08;12.30;;;10.13;;
8861;SDS011;4799;50.996;4.754;2023-12-07T12:25:34;11.37;;;9.93;;
8861;SDS011;4799;50.996;4.754;2023-12-07T12:28:03;11.70;;;10.33;;
8861;SDS011;4799;50.996;4.754;2023-12-07T12:30:31;11.73;;;10.10;;
8861;SDS011;4799;50.996;4.754;2023-12-07T12:32:57;12.50;;;9.60;;
8861;SDS011;4799;50.996;4.754;2023-12-07T12:35:25;10.83;;;9.73;;
8861;SDS011;4799;50.996;4.754;2023-12-07T12:37:51;10.50;;;9.40;;
8861;SDS011;4799;50.996;4.754;2023-12-07T12:40:18;10.83;;;9.47;;
8861;SDS011;4799;50.996;4.754;2023-12-07T12:42:49;11.53;;;9.80;;
8861;SDS011;4799;50.996;4.754;2023-12-07T12:45:15;10.40;;;9.40;;
8861;SDS011;4799;50.996;4.754;2023-12-07T12:47:43;9.97;;;8.93;;
8861;SDS011;4799;50.996;4.754;2023-12-07T12:50:10;10.83;;;9.70;;
8861;SDS011;4799;50.996;4.754;2023-12-07T12:52:37;11.47;;;9.37;;
8861;SDS011;4799;50.996;4.754;2023-12-07T12:55:08;10.30;;;9.30;;
8861;SDS011;4799;50.996;4.754;2023-12-07T12:57:35;10.60;;;9.10;;
8861;SDS011;4799;50.996;4.754;2023-12-07T13:00:02;12.37;;;9.70;;
8861;SDS011;4799;50.996;4.754;2023-12-07T13:02:28;11.27;;;10.17;;
8861;SDS011;4799;50.996;4.754;2023-12-07T13:04:54;10.73;;;9.67;;
8861;SDS011;4799;50.996;4.754;2023-12-07T13:07:21;11.13;;;9.90;;
8861;SDS011;4799;50.996;4.754;2023-12-07T13:09:49;10.50;;;9.47;;
8861;SDS011;4799;50.996;4.754;2023-12-07T13:12:15;11.17;;;10.07;;
8861;SDS011;4799;50.996;4.754;2023-12-07T13:14:41;11.13;;;9.70;;
8861;SDS011;4799;50.996;4.754;2023-12-07T13:17:10;11.60;;;9.87;;
8861;SDS011;4799;50.996;4.754;2023-12-07T13:19:35;11.17;;;9.63;;
8861;SDS011;4799;50.996;4.754;2023-12-07T13:22:02;11.13;;;9.43;;
8861;SDS011;4799;50.996;4.754;2023-12-07T13:24:31;10.03;;;8.93;;
8861;SDS011;4799;50.996;4.754;2023-12-07T13:26:57;10.77;;;9.73;;
8861;SDS011;4799;50.996;4.754;2023-12-07T13:29:25;10.00;;;9.10;;
8861;SDS011;4799;50.996;4.754;2023-12-07T13:31:51;10.33;;;9.10;;
8861;SDS011;4799;50.996;4.754;2023-12-07T13:34:16;9.70;;;8.80;;
8861;SDS011;4799;50.996;4.754;2023-12-07T13:36:42;10.03;;;9.03;;
8861;SDS011;4799;50.996;4.754;2023-12-07T13:39:08;11.90;;;9.20;;
8861;SDS011;4799;50.996;4.754;2023-12-07T13:41:34;9.87;;;8.87;;
8861;SDS011;4799;50.996;4.754;2023-12-07T13:44:00;9.97;;;8.80;;
8861;SDS011;4799;50.996;4.754;2023-12-07T13:46:26;9.53;;;8.63;;
8861;SDS011;4799;50.996;4.754;2023-12-07T13:48:52;10.30;;;8.80;;
8861;SDS011;4799;50.996;4.754;2023-12-07T13:51:53;9.47;;;8.57;;
8861;SDS011;4799;50.996;4.754;2023-12-07T13:54:38;9.67;;;8.67;;
8861;SDS011;4799;50.996;4.754;2023-12-07T13:57:22;9.20;;;8.30;;
8861;SDS011;4799;50.996;4.754;2023-12-07T13:59:54;9.13;;;8.20;;
8861;SDS011;4799;50.996;4.754;2023-12-07T14:02:20;9.67;;;8.67;;
8861;SDS011;4799;50.996;4.754;2023-12-07T14:04:46;9.93;;;8.93;;
8861;SDS011;4799;50.996;4.754;2023-12-07T14:07:16;10.67;;;9.57;;
8861;SDS011;4799;50.996;4.754;2023-12-07T14:09:44;9.47;;;8.57;;
8861;SDS011;4799;50.996;4.754;2023-12-07T14:12:11;10.30;;;9.00;;
8861;SDS011;4799;50.996;4.754;2023-12-07T14:14:39;9.90;;;8.90;;
8861;SDS011;4799;50.996;4.754;2023-12-07T14:17:05;13.87;;;9.63;;
8861;SDS011;4799;50.996;4.754;2023-12-07T14:19:31;10.27;;;9.07;;
8861;SDS011;4799;50.996;4.754;2023-12-07T14:21:57;9.97;;;9.00;;
8861;SDS011;4799;50.996;4.754;2023-12-07T14:24:24;10.20;;;9.20;;
8861;SDS011;4799;50.996;4.754;2023-12-07T14:26:50;9.40;;;8.40;;
8861;SDS011;4799;50.996;4.754;2023-12-07T14:29:16;10.00;;;9.00;;
8861;SDS011;4799;50.996;4.754;2023-12-07T14:31:47;9.17;;;8.33;;
8861;SDS011;4799;50.996;4.754;2023-12-07T14:34:13;9.77;;;8.00;;
8861;SDS011;4799;50.996;4.754;2023-12-07T14:36:40;8.80;;;7.90;;
8861;SDS011;4799;50.996;4.754;2023-12-07T14:39:09;8.40;;;7.60;;
8861;SDS011;4799;50.996;4.754;2023-12-07T14:41:35;8.57;;;7.60;;
8861;SDS011;4799;50.996;4.754;2023-12-07T14:44:01;8.30;;;7.50;;
8861;SDS011;4799;50.996;4.754;2023-12-07T14:46:27;8.60;;;7.10;;
8861;SDS011;4799;50.996;4.754;2023-12-07T14:48:53;10.03;;;7.30;;
8861;SDS011;4799;50.996;4.754;2023-12-07T14:51:19;8.03;;;7.20;;
8861;SDS011;4799;50.996;4.754;2023-12-07T14:53:47;7.63;;;6.93;;
8861;SDS011;4799;50.996;4.754;2023-12-07T14:56:13;7.53;;;6.80;;
8861;SDS011;4799;50.996;4.754;2023-12-07T14:58:39;8.03;;;6.90;;